sensor_id;sensor_type;location;lat;lon;timestamp;pressure;altitude;pressure_sealevel;temperature;humidity
3096;BME280;1558;42.700;23.360;2023-08-06T00:00:20;94212.50;;;19.38;100.00
3096;BME280;1558;42.700;23.360;2023-08-06T00:02:55;94207.19;;;19.27;100.00
3096;BME280;1558;42.700;23.360;2023-08-06T00:05:24;94207.81;;;19.38;100.00
3096;BME280;1558;42.700;23.360;2023-08-06T00:08:03;94206.06;;;19.51;100.00
3096;BME280;1558;42.700;23.360;2023-08-06T00:10:31;94205.88;;;19.35;100.00
3096;BME280;1558;42.700;23.360;2023-08-06T00:13:01;94206.28;;;19.34;100.00
3096;BME280;1558;42.700;23.360;2023-08-06T00:15:29;94216.16;;;19.28;100.00
3096;BME280;1558;42.700;23.360;2023-08-06T00:17:57;94232.50;;;19.31;100.00
3096;BME280;1558;42.700;23.360;2023-08-06T00:20:25;94204.50;;;19.50;100.00
3096;BME280;1558;42.700;23.360;2023-08-06T00:22:53;94185.91;;;19.42;100.00
3096;BME280;1558;42.700;23.360;2023-08-06T00:25:21;94195.59;;;19.46;100.00
3096;BME280;1558;42.700;23.360;2023-08-06T00:27:49;94209.72;;;19.41;100.00
3096;BME280;1558;42.700;23.360;2023-08-06T00:30:19;94204.81;;;19.29;100.00
3096;BME280;1558;42.700;23.360;2023-08-06T00:32:47;94200.78;;;19.37;100.00
3096;BME280;1558;42.700;23.360;2023-08-06T00:35:16;94184.28;;;19.44;100.00
3096;BME280;1558;42.700;23.360;2023-08-06T00:37:44;94183.28;;;19.58;100.00
3096;BME280;1558;42.700;23.360;2023-08-06T00:40:12;94189.28;;;19.49;100.00
3096;BME280;1558;42.700;23.360;2023-08-06T00:42:40;94177.84;;;19.54;100.00
3096;BME280;1558;42.700;23.360;2023-08-06T00:45:10;94171.31;;;19.48;100.00
3096;BME280;1558;42.700;23.360;2023-08-06T00:47:40;94183.09;;;19.45;100.00
3096;BME280;1558;42.700;23.360;2023-08-06T00:50:09;94170.38;;;19.32;100.00
3096;BME280;1558;42.700;23.360;2023-08-06T00:52:37;94174.25;;;19.34;100.00
3096;BME280;1558;42.700;23.360;2023-08-06T00:55:06;94165.41;;;19.23;100.00
3096;BME280;1558;42.700;23.360;2023-08-06T00:57:34;94168.59;;;19.22;100.00
3096;BME280;1558;42.700;23.360;2023-08-06T01:00:03;94170.84;;;19.27;100.00
3096;BME280;1558;42.700;23.360;2023-08-06T01:02:31;94149.47;;;19.45;100.00
3096;BME280;1558;42.700;23.360;2023-08-06T01:05:01;94155.72;;;19.45;100.00
3096;BME280;1558;42.700;23.360;2023-08-06T01:07:40;94138.69;;;19.34;100.00
3096;BME280;1558;42.700;23.360;2023-08-06T01:10:23;94124.13;;;19.44;100.00
3096;BME280;1558;42.700;23.360;2023-08-06T01:13:08;94124.81;;;19.48;100.00
3096;BME280;1558;42.700;23.360;2023-08-06T01:15:43;94129.69;;;19.37;100.00
3096;BME280;1558;42.700;23.360;2023-08-06T01:18:14;94126.56;;;19.35;100.00
3096;BME280;1558;42.700;23.360;2023-08-06T01:20:43;94133.63;;;19.36;100.00
3096;BME280;1558;42.700;23.360;2023-08-06T01:23:11;94139.56;;;19.54;100.00
3096;BME280;1558;42.700;23.360;2023-08-06T01:25:49;94118.97;;;19.70;100.00
3096;BME280;1558;42.700;23.360;2023-08-06T01:28:40;94110.94;;;19.59;100.00
3096;BME280;1558;42.700;23.360;2023-08-06T01:31:14;94117.06;;;19.67;100.00
3096;BME280;1558;42.700;23.360;2023-08-06T01:33:45;94121.59;;;19.77;100.00
3096;BME280;1558;42.700;23.360;2023-08-06T01:36:19;94107.34;;;19.85;100.00
3096;BME280;1558;42.700;23.360;2023-08-06T01:38:48;94120.16;;;19.92;100.00
3096;BME280;1558;42.700;23.360;2023-08-06T01:41:18;94116.19;;;19.93;100.00
3096;BME280;1558;42.700;23.360;2023-08-06T01:43:46;94114.44;;;20.02;100.00
3096;BME280;1558;42.700;23.360;2023-08-06T01:46:16;94112.34;;;19.90;100.00
3096;BME280;1558;42.700;23.360;2023-08-06T01:48:45;94104.00;;;19.78;100.00
3096;BME280;1558;42.700;23.360;2023-08-06T01:51:14;94106.56;;;19.65;100.00
3096;BME280;1558;42.700;23.360;2023-08-06T01:53:45;94105.72;;;19.68;100.00
3096;BME280;1558;42.700;23.360;2023-08-06T01:56:15;94108.72;;;19.74;100.00
3096;BME280;1558;42.700;23.360;2023-08-06T01:58:45;94107.50;;;19.55;100.00
3096;BME280;1558;42.700;23.360;2023-08-06T02:01:14;94109.88;;;19.53;100.00
3096;BME280;1558;42.700;23.360;2023-08-06T02:03:43;94103.63;;;19.52;100.00
3096;BME280;1558;42.700;23.360;2023-08-06T02:06:16;94089.03;;;19.39;100.00
3096;BME280;1558;42.700;23.360;2023-08-06T02:08:48;94095.88;;;19.51;100.00
3096;BME280;1558;42.700;23.360;2023-08-06T02:11:18;94094.84;;;19.41;100.00
3096;BME280;1558;42.700;23.360;2023-08-06T02:13:48;94085.44;;;19.66;100.00
3096;BME280;1558;42.700;23.360;2023-08-06T02:16:20;94078.72;;;19.47;100.00
3096;BME280;1558;42.700;23.360;2023-08-06T02:18:53;94096.50;;;19.58;100.00
3096;BME280;1558;42.700;23.360;2023-08-06T02:21:23;94103.47;;;19.63;100.00
3096;BME280;1558;42.700;23.360;2023-08-06T02:23:54;94109.28;;;19.65;100.00
3096;BME280;1558;42.700;23.360;2023-08-06T02:26:33;94120.47;;;19.74;100.00
3096;BME280;1558;42.700;23.360;2023-08-06T02:29:04;94121.63;;;19.73;100.00
3096;BME280;1558;42.700;23.360;2023-08-06T02:31:33;94126.72;;;19.75;100.00
3096;BME280;1558;42.700;23.360;2023-08-06T02:34:06;94118.28;;;19.66;100.00
3096;BME280;1558;42.700;23.360;2023-08-06T02:36:35;94114.28;;;19.70;100.00
3096;BME280;1558;42.700;23.360;2023-08-06T02:39:06;94111.06;;;19.75;100.00
3096;BME280;1558;42.700;23.360;2023-08-06T02:41:39;94127.66;;;19.65;100.00
3096;BME280;1558;42.700;23.360;2023-08-06T02:44:09;94134.09;;;19.54;100.00
3096;BME280;1558;42.700;23.360;2023-08-06T02:46:39;94147.75;;;19.54;100.00
3096;BME280;1558;42.700;23.360;2023-08-06T02:49:07;94156.09;;;19.47;100.00
3096;BME280;1558;42.700;23.360;2023-08-06T02:51:35;94140.53;;;19.44;100.00
3096;BME280;1558;42.700;23.360;2023-08-06T02:54:12;94124.88;;;19.45;100.00
3096;BME280;1558;42.700;23.360;2023-08-06T02:56:43;94119.28;;;19.75;100.00
3096;BME280;1558;42.700;23.360;2023-08-06T02:59:12;94105.50;;;19.79;100.00
3096;BME280;1558;42.700;23.360;2023-08-06T03:01:45;94109.47;;;19.78;100.00
3096;BME280;1558;42.700;23.360;2023-08-06T03:04:13;94094.22;;;19.77;100.00
3096;BME280;1558;42.700;23.360;2023-08-06T03:06:42;94091.13;;;19.75;100.00
3096;BME280;1558;42.700;23.360;2023-08-06T03:09:14;94094.44;;;19.86;100.00
3096;BME280;1558;42.700;23.360;2023-08-06T03:11:43;94102.44;;;19.77;100.00
3096;BME280;1558;42.700;23.360;2023-08-06T03:14:20;94047.56;;;20.03;100.00
3096;BME280;1558;42.700;23.360;2023-08-06T03:16:48;94032.69;;;19.85;100.00
3096;BME280;1558;42.700;23.360;2023-08-06T03:19:16;94057.81;;;19.80;100.00
3096;BME280;1558;42.700;23.360;2023-08-06T03:21:44;94069.59;;;19.77;100.00
3096;BME280;1558;42.700;23.360;2023-08-06T03:24:14;94060.94;;;19.78;100.00
3096;BME280;1558;42.700;23.360;2023-08-06T03:26:42;94040.03;;;19.88;100.00
3096;BME280;1558;42.700;23.360;2023-08-06T03:29:10;94066.22;;;19.69;100.00
3096;BME280;1558;42.700;23.360;2023-08-06T03:31:38;94101.84;;;19.66;100.00
3096;BME280;1558;42.700;23.360;2023-08-06T03:34:07;94123.13;;;19.54;100.00
3096;BME280;1558;42.700;23.360;2023-08-06T03:36:35;94140.03;;;19.49;100.00
3096;BME280;1558;42.700;23.360;2023-08-06T03:39:04;94146.94;;;19.57;100.00
3096;BME280;1558;42.700;23.360;2023-08-06T03:41:33;94148.00;;;19.64;100.00
3096;BME280;1558;42.700;23.360;2023-08-06T03:44:01;94127.06;;;19.77;100.00
3096;BME280;1558;42.700;23.360;2023-08-06T03:46:30;94111.47;;;19.74;100.00
3096;BME280;1558;42.700;23.360;2023-08-06T03:49:00;94100.59;;;19.90;100.00
3096;BME280;1558;42.700;23.360;2023-08-06T03:51:29;94101.88;;;19.85;100.00
3096;BME280;1558;42.700;23.360;2023-08-06T03:53:57;94105.03;;;19.84;100.00
3096;BME280;1558;42.700;23.360;2023-08-06T03:56:25;94104.81;;;19.75;100.00
3096;BME280;1558;42.700;23.360;2023-08-06T03:58:54;94125.22;;;19.70;100.00
3096;BME280;1558;42.700;23.360;2023-08-06T04:01:22;94128.09;;;19.83;100.00
3096;BME280;1558;42.700;23.360;2023-08-06T04:03:50;94123.63;;;19.73;100.00
3096;BME280;1558;42.700;23.360;2023-08-06T04:06:18;94140.09;;;19.69;100.00
3096;BME280;1558;42.700;23.360;2023-08-06T04:08:46;94151.47;;;19.68;100.00
3096;BME280;1558;42.700;23.360;2023-08-06T04:11:14;94155.72;;;19.69;100.00
3096;BME280;1558;42.700;23.360;2023-08-06T04:13:43;94159.81;;;19.80;100.00
3096;BME280;1558;42.700;23.360;2023-08-06T04:16:13;94157.16;;;19.77;100.00
3096;BME280;1558;42.700;23.360;2023-08-06T04:18:41;94145.88;;;19.75;100.00
3096;BME280;1558;42.700;23.360;2023-08-06T04:21:09;94141.16;;;19.75;100.00
3096;BME280;1558;42.700;23.360;2023-08-06T04:23:38;94136.88;;;19.74;100.00
3096;BME280;1558;42.700;23.360;2023-08-06T04:26:06;94127.22;;;19.89;100.00
3096;BME280;1558;42.700;23.360;2023-08-06T04:28:34;94112.41;;;19.87;100.00
3096;BME280;1558;42.700;23.360;2023-08-06T04:31:02;94110.03;;;19.89;100.00
3096;BME280;1558;42.700;23.360;2023-08-06T04:33:31;94114.81;;;19.85;100.00
3096;BME280;1558;42.700;23.360;2023-08-06T04:36:00;94120.06;;;19.95;100.00
3096;BME280;1558;42.700;23.360;2023-08-06T04:38:28;94119.16;;;20.02;100.00
3096;BME280;1558;42.700;23.360;2023-08-06T04:40:56;94095.56;;;20.08;100.00
3096;BME280;1558;42.700;23.360;2023-08-06T04:43:24;94093.69;;;20.05;100.00
3096;BME280;1558;42.700;23.360;2023-08-06T04:45:54;94097.84;;;20.13;100.00
3096;BME280;1558;42.700;23.360;2023-08-06T04:48:22;94079.59;;;20.26;100.00
3096;BME280;1558;42.700;23.360;2023-08-06T04:50:52;94078.22;;;20.14;100.00
3096;BME280;1558;42.700;23.360;2023-08-06T04:53:20;94067.94;;;20.22;100.00
3096;BME280;1558;42.700;23.360;2023-08-06T04:55:48;94059.75;;;20.18;100.00
3096;BME280;1558;42.700;23.360;2023-08-06T04:58:16;94051.97;;;20.17;100.00
3096;BME280;1558;42.700;23.360;2023-08-06T05:00:44;94058.28;;;20.14;100.00
3096;BME280;1558;42.700;23.360;2023-08-06T05:03:12;94045.53;;;20.27;100.00
3096;BME280;1558;42.700;23.360;2023-08-06T05:05:40;94054.13;;;20.45;100.00
3096;BME280;1558;42.700;23.360;2023-08-06T05:08:14;94057.22;;;20.47;100.00
3096;BME280;1558;42.700;23.360;2023-08-06T05:10:43;94070.91;;;20.47;100.00
3096;BME280;1558;42.700;23.360;2023-08-06T05:13:12;94063.09;;;20.65;100.00
3096;BME280;1558;42.700;23.360;2023-08-06T05:15:41;94072.44;;;20.68;100.00
3096;BME280;1558;42.700;23.360;2023-08-06T05:18:11;94072.56;;;20.97;100.00
3096;BME280;1558;42.700;23.360;2023-08-06T05:20:41;94069.81;;;21.45;100.00
3096;BME280;1558;42.700;23.360;2023-08-06T05:23:11;94069.63;;;22.13;100.00
3096;BME280;1558;42.700;23.360;2023-08-06T05:25:39;94081.75;;;22.41;100.00
3096;BME280;1558;42.700;23.360;2023-08-06T05:28:07;94075.94;;;22.39;100.00
3096;BME280;1558;42.700;23.360;2023-08-06T05:30:39;94071.03;;;21.44;100.00
3096;BME280;1558;42.700;23.360;2023-08-06T05:33:07;94058.84;;;20.45;100.00
3096;BME280;1558;42.700;23.360;2023-08-06T05:35:35;94070.97;;;20.63;100.00
3096;BME280;1558;42.700;23.360;2023-08-06T05:38:03;94074.50;;;20.80;100.00
3096;BME280;1558;42.700;23.360;2023-08-06T05:40:34;94061.38;;;21.68;100.00
3096;BME280;1558;42.700;23.360;2023-08-06T05:43:02;94063.69;;;21.86;100.00
3096;BME280;1558;42.700;23.360;2023-08-06T05:45:30;94063.25;;;21.87;100.00
3096;BME280;1558;42.700;23.360;2023-08-06T05:47:58;94052.94;;;21.75;100.00
3096;BME280;1558;42.700;23.360;2023-08-06T05:50:27;94050.00;;;21.82;100.00
3096;BME280;1558;42.700;23.360;2023-08-06T05:52:55;94054.19;;;22.57;100.00
3096;BME280;1558;42.700;23.360;2023-08-06T05:55:26;94062.25;;;22.10;100.00
3096;BME280;1558;42.700;23.360;2023-08-06T05:57:56;94074.63;;;22.02;100.00
3096;BME280;1558;42.700;23.360;2023-08-06T06:00:24;94058.03;;;22.47;100.00
3096;BME280;1558;42.700;23.360;2023-08-06T06:02:52;94073.56;;;22.66;100.00
3096;BME280;1558;42.700;23.360;2023-08-06T06:05:20;94065.22;;;22.15;100.00
3096;BME280;1558;42.700;23.360;2023-08-06T06:07:48;94085.69;;;22.81;100.00
3096;BME280;1558;42.700;23.360;2023-08-06T06:10:17;94080.19;;;22.68;100.00
3096;BME280;1558;42.700;23.360;2023-08-06T06:12:45;94084.72;;;22.34;100.00
3096;BME280;1558;42.700;23.360;2023-08-06T06:15:14;94086.25;;;21.77;100.00
3096;BME280;1558;42.700;23.360;2023-08-06T06:17:43;94101.22;;;22.34;100.00
3096;BME280;1558;42.700;23.360;2023-08-06T06:20:11;94094.63;;;22.98;100.00
3096;BME280;1558;42.700;23.360;2023-08-06T06:22:39;94115.97;;;22.94;100.00
3096;BME280;1558;42.700;23.360;2023-08-06T06:25:07;94116.94;;;22.74;100.00
3096;BME280;1558;42.700;23.360;2023-08-06T06:27:36;94117.88;;;21.98;100.00
3096;BME280;1558;42.700;23.360;2023-08-06T06:30:05;94120.84;;;21.75;100.00
3096;BME280;1558;42.700;23.360;2023-08-06T06:32:35;94136.41;;;22.10;100.00
3096;BME280;1558;42.700;23.360;2023-08-06T06:35:04;94139.72;;;21.73;100.00
3096;BME280;1558;42.700;23.360;2023-08-06T06:37:33;94130.38;;;22.15;100.00
3096;BME280;1558;42.700;23.360;2023-08-06T06:40:01;94129.47;;;22.63;100.00
3096;BME280;1558;42.700;23.360;2023-08-06T06:42:30;94133.13;;;22.98;100.00
3096;BME280;1558;42.700;23.360;2023-08-06T06:44:58;94137.53;;;23.71;100.00
3096;BME280;1558;42.700;23.360;2023-08-06T06:47:26;94141.69;;;23.88;100.00
3096;BME280;1558;42.700;23.360;2023-08-06T06:49:56;94149.66;;;24.63;100.00
3096;BME280;1558;42.700;23.360;2023-08-06T06:52:24;94151.88;;;24.90;100.00
3096;BME280;1558;42.700;23.360;2023-08-06T06:54:52;94149.19;;;25.70;100.00
3096;BME280;1558;42.700;23.360;2023-08-06T06:57:20;94137.88;;;25.46;100.00
3096;BME280;1558;42.700;23.360;2023-08-06T06:59:48;94138.97;;;24.44;100.00
3096;BME280;1558;42.700;23.360;2023-08-06T07:02:16;94146.25;;;24.03;100.00
3096;BME280;1558;42.700;23.360;2023-08-06T07:04:44;94149.69;;;24.85;100.00
3096;BME280;1558;42.700;23.360;2023-08-06T07:07:14;94153.69;;;26.03;100.00
3096;BME280;1558;42.700;23.360;2023-08-06T07:09:42;94147.00;;;26.50;100.00
3096;BME280;1558;42.700;23.360;2023-08-06T07:12:10;94154.66;;;26.73;100.00
3096;BME280;1558;42.700;23.360;2023-08-06T07:14:38;94148.50;;;27.05;100.00
3096;BME280;1558;42.700;23.360;2023-08-06T07:17:06;94152.66;;;26.82;99.22
3096;BME280;1558;42.700;23.360;2023-08-06T07:19:34;94146.19;;;27.55;100.00
3096;BME280;1558;42.700;23.360;2023-08-06T07:22:02;94109.09;;;27.52;85.72
3096;BME280;1558;42.700;23.360;2023-08-06T07:24:32;94153.69;;;27.63;86.61
3096;BME280;1558;42.700;23.360;2023-08-06T07:27:00;94161.72;;;27.85;82.44
3096;BME280;1558;42.700;23.360;2023-08-06T07:29:29;94152.31;;;28.39;79.08
3096;BME280;1558;42.700;23.360;2023-08-06T07:31:57;94161.28;;;28.34;74.45
3096;BME280;1558;42.700;23.360;2023-08-06T07:34:25;94163.66;;;27.70;74.14
3096;BME280;1558;42.700;23.360;2023-08-06T07:36:53;94154.28;;;28.00;72.76
3096;BME280;1558;42.700;23.360;2023-08-06T07:39:21;94137.03;;;28.19;71.13
3096;BME280;1558;42.700;23.360;2023-08-06T07:41:52;94161.28;;;29.25;70.96
3096;BME280;1558;42.700;23.360;2023-08-06T07:44:20;94164.44;;;29.18;67.17
3096;BME280;1558;42.700;23.360;2023-08-06T07:46:48;94166.53;;;29.67;64.24
3096;BME280;1558;42.700;23.360;2023-08-06T07:49:17;94156.84;;;29.62;63.40
3096;BME280;1558;42.700;23.360;2023-08-06T07:51:45;94162.59;;;29.73;63.64
3096;BME280;1558;42.700;23.360;2023-08-06T07:54:13;94167.41;;;29.58;61.65
3096;BME280;1558;42.700;23.360;2023-08-06T07:56:41;94166.41;;;29.90;63.47
3096;BME280;1558;42.700;23.360;2023-08-06T07:59:11;94166.28;;;29.50;62.19
3096;BME280;1558;42.700;23.360;2023-08-06T08:01:39;94073.91;;;28.82;63.99
3096;BME280;1558;42.700;23.360;2023-08-06T08:04:07;94162.09;;;28.72;63.90
3096;BME280;1558;42.700;23.360;2023-08-06T08:06:36;94168.91;;;29.01;62.68
3096;BME280;1558;42.700;23.360;2023-08-06T08:09:04;94149.28;;;28.51;63.79
3096;BME280;1558;42.700;23.360;2023-08-06T08:11:32;94153.13;;;28.54;61.53
3096;BME280;1558;42.700;23.360;2023-08-06T08:14:00;94143.16;;;28.47;61.42
3096;BME280;1558;42.700;23.360;2023-08-06T08:16:30;94161.00;;;29.23;59.64
3096;BME280;1558;42.700;23.360;2023-08-06T08:18:59;94165.56;;;29.84;60.10
3096;BME280;1558;42.700;23.360;2023-08-06T08:21:27;94167.78;;;29.51;58.81
3096;BME280;1558;42.700;23.360;2023-08-06T08:23:55;94171.25;;;29.95;58.33
3096;BME280;1558;42.700;23.360;2023-08-06T08:26:23;94137.81;;;29.26;58.27
3096;BME280;1558;42.700;23.360;2023-08-06T08:28:51;94170.56;;;29.07;59.24
3096;BME280;1558;42.700;23.360;2023-08-06T08:31:19;94170.19;;;29.58;57.59
3096;BME280;1558;42.700;23.360;2023-08-06T08:33:49;94166.13;;;29.74;55.04
3096;BME280;1558;42.700;23.360;2023-08-06T08:36:21;94163.28;;;29.54;56.11
3096;BME280;1558;42.700;23.360;2023-08-06T08:38:49;94157.59;;;29.77;55.78
3096;BME280;1558;42.700;23.360;2023-08-06T08:41:20;94113.69;;;30.01;55.77
3096;BME280;1558;42.700;23.360;2023-08-06T08:43:50;94141.50;;;31.33;54.11
3096;BME280;1558;42.700;23.360;2023-08-06T08:46:19;94156.88;;;30.52;54.14
3096;BME280;1558;42.700;23.360;2023-08-06T08:48:49;94159.16;;;29.78;56.61
3096;BME280;1558;42.700;23.360;2023-08-06T08:51:18;94154.78;;;29.28;56.58
3096;BME280;1558;42.700;23.360;2023-08-06T08:53:47;94117.34;;;29.58;55.66
3096;BME280;1558;42.700;23.360;2023-08-06T08:56:20;94147.78;;;29.47;55.45
3096;BME280;1558;42.700;23.360;2023-08-06T08:58:49;94140.06;;;30.06;54.53
3096;BME280;1558;42.700;23.360;2023-08-06T09:01:22;94144.66;;;31.15;53.03
3096;BME280;1558;42.700;23.360;2023-08-06T09:03:53;94129.22;;;31.45;51.98
3096;BME280;1558;42.700;23.360;2023-08-06T09:06:33;94118.16;;;31.57;50.31
3096;BME280;1558;42.700;23.360;2023-08-06T09:09:09;94127.66;;;31.70;50.40
3096;BME280;1558;42.700;23.360;2023-08-06T09:11:43;94121.13;;;31.84;49.39
3096;BME280;1558;42.700;23.360;2023-08-06T09:14:11;94129.13;;;31.66;49.90
3096;BME280;1558;42.700;23.360;2023-08-06T09:16:40;94125.81;;;31.36;50.31
3096;BME280;1558;42.700;23.360;2023-08-06T09:19:10;94118.91;;;31.00;50.81
3096;BME280;1558;42.700;23.360;2023-08-06T09:21:40;94129.91;;;31.09;51.42
3096;BME280;1558;42.700;23.360;2023-08-06T09:24:08;94109.22;;;30.90;50.81
3096;BME280;1558;42.700;23.360;2023-08-06T09:26:37;94108.72;;;30.71;51.06
3096;BME280;1558;42.700;23.360;2023-08-06T09:29:06;94105.69;;;31.21;50.51
3096;BME280;1558;42.700;23.360;2023-08-06T09:31:40;94114.03;;;31.47;48.94
3096;BME280;1558;42.700;23.360;2023-08-06T09:34:15;94086.22;;;31.58;48.35
3096;BME280;1558;42.700;23.360;2023-08-06T09:36:43;94096.16;;;32.54;46.70
3096;BME280;1558;42.700;23.360;2023-08-06T09:39:14;94088.75;;;31.98;45.67
3096;BME280;1558;42.700;23.360;2023-08-06T09:41:43;94062.03;;;31.80;46.96
3096;BME280;1558;42.700;23.360;2023-08-06T09:44:15;94063.78;;;32.31;46.33
3096;BME280;1558;42.700;23.360;2023-08-06T09:46:47;94096.44;;;32.14;44.45
3096;BME280;1558;42.700;23.360;2023-08-06T09:49:17;94109.47;;;31.18;47.33
3096;BME280;1558;42.700;23.360;2023-08-06T09:51:50;94096.16;;;32.01;46.51
3096;BME280;1558;42.700;23.360;2023-08-06T09:54:24;94103.31;;;32.13;45.35
3096;BME280;1558;42.700;23.360;2023-08-06T09:56:55;94099.81;;;32.29;44.42
3096;BME280;1558;42.700;23.360;2023-08-06T09:59:23;94073.81;;;31.64;44.55
3096;BME280;1558;42.700;23.360;2023-08-06T10:01:53;94103.59;;;30.24;47.25
3096;BME280;1558;42.700;23.360;2023-08-06T10:04:24;94097.72;;;29.47;48.80
3096;BME280;1558;42.700;23.360;2023-08-06T10:09:51;94109.34;;;28.87;51.82
3096;BME280;1558;42.700;23.360;2023-08-06T10:12:20;94116.72;;;28.75;51.60
3096;BME280;1558;42.700;23.360;2023-08-06T10:14:49;94118.22;;;28.76;51.52
3096;BME280;1558;42.700;23.360;2023-08-06T10:17:19;94072.53;;;27.86;50.80
3096;BME280;1558;42.700;23.360;2023-08-06T10:19:51;94106.66;;;28.01;52.33
3096;BME280;1558;42.700;23.360;2023-08-06T10:22:21;94091.84;;;27.81;52.23
3096;BME280;1558;42.700;23.360;2023-08-06T10:24:51;94067.53;;;27.76;52.21
3096;BME280;1558;42.700;23.360;2023-08-06T10:27:21;94115.09;;;29.27;49.41
3096;BME280;1558;42.700;23.360;2023-08-06T10:29:49;94105.59;;;28.75;50.63
3096;BME280;1558;42.700;23.360;2023-08-06T10:32:18;93972.81;;;27.77;51.48
3096;BME280;1558;42.700;23.360;2023-08-06T10:34:57;94111.56;;;28.45;51.97
3096;BME280;1558;42.700;23.360;2023-08-06T10:37:35;94119.09;;;28.30;52.47
3096;BME280;1558;42.700;23.360;2023-08-06T10:40:06;94129.06;;;28.12;53.32
3096;BME280;1558;42.700;23.360;2023-08-06T10:42:34;94130.75;;;28.34;53.11
3096;BME280;1558;42.700;23.360;2023-08-06T10:45:14;94125.47;;;28.21;53.36
3096;BME280;1558;42.700;23.360;2023-08-06T10:47:43;94124.66;;;28.06;52.85
3096;BME280;1558;42.700;23.360;2023-08-06T10:50:14;94128.84;;;28.01;53.52
3096;BME280;1558;42.700;23.360;2023-08-06T10:52:43;94138.91;;;27.90;54.20
3096;BME280;1558;42.700;23.360;2023-08-06T10:55:12;94139.75;;;27.72;54.51
3096;BME280;1558;42.700;23.360;2023-08-06T10:57:40;94139.88;;;27.54;54.12
3096;BME280;1558;42.700;23.360;2023-08-06T11:00:10;94156.53;;;27.45;54.86
3096;BME280;1558;42.700;23.360;2023-08-06T11:02:43;94098.28;;;27.21;54.84
3096;BME280;1558;42.700;23.360;2023-08-06T11:05:13;94155.31;;;27.79;55.40
3096;BME280;1558;42.700;23.360;2023-08-06T11:07:42;94133.47;;;27.72;55.64
3096;BME280;1558;42.700;23.360;2023-08-06T11:10:12;94156.72;;;28.07;54.55
3096;BME280;1558;42.700;23.360;2023-08-06T11:12:40;94147.28;;;27.81;52.92
3096;BME280;1558;42.700;23.360;2023-08-06T11:15:09;94153.63;;;27.72;53.23
3096;BME280;1558;42.700;23.360;2023-08-06T11:17:40;94164.25;;;28.06;52.58
3096;BME280;1558;42.700;23.360;2023-08-06T11:20:09;94163.25;;;28.42;52.01
3096;BME280;1558;42.700;23.360;2023-08-06T11:22:39;94140.59;;;27.64;54.42
3096;BME280;1558;42.700;23.360;2023-08-06T11:25:08;94175.47;;;27.46;54.89
3096;BME280;1558;42.700;23.360;2023-08-06T11:27:36;94181.66;;;27.23;56.47
3096;BME280;1558;42.700;23.360;2023-08-06T11:30:06;94040.19;;;26.07;59.17
3096;BME280;1558;42.700;23.360;2023-08-06T11:32:44;94141.44;;;26.32;64.32
3096;BME280;1558;42.700;23.360;2023-08-06T11:35:15;94178.94;;;26.42;65.92
3096;BME280;1558;42.700;23.360;2023-08-06T11:37:45;94126.25;;;26.54;66.89
3096;BME280;1558;42.700;23.360;2023-08-06T11:40:14;94153.19;;;27.74;61.99
3096;BME280;1558;42.700;23.360;2023-08-06T11:42:43;94144.19;;;27.55;61.41
3096;BME280;1558;42.700;23.360;2023-08-06T11:45:11;94165.63;;;28.11;59.54
3096;BME280;1558;42.700;23.360;2023-08-06T11:47:39;94159.03;;;30.07;53.79
3096;BME280;1558;42.700;23.360;2023-08-06T11:50:08;94148.69;;;30.89;51.17
3096;BME280;1558;42.700;23.360;2023-08-06T11:52:39;94119.78;;;31.69;48.34
3096;BME280;1558;42.700;23.360;2023-08-06T11:55:10;94151.59;;;30.54;47.76
3096;BME280;1558;42.700;23.360;2023-08-06T11:57:39;94167.13;;;29.56;49.09
3096;BME280;1558;42.700;23.360;2023-08-06T12:00:09;94154.75;;;31.38;48.59
3096;BME280;1558;42.700;23.360;2023-08-06T12:02:39;94144.63;;;32.51;45.45
3096;BME280;1558;42.700;23.360;2023-08-06T12:05:12;94147.94;;;33.42;42.71
3096;BME280;1558;42.700;23.360;2023-08-06T12:07:42;94126.06;;;33.46;42.06
3096;BME280;1558;42.700;23.360;2023-08-06T12:10:13;94140.31;;;33.59;40.92
3096;BME280;1558;42.700;23.360;2023-08-06T12:12:42;94125.94;;;32.91;40.86
3096;BME280;1558;42.700;23.360;2023-08-06T12:15:10;94132.53;;;32.76;41.25
3096;BME280;1558;42.700;23.360;2023-08-06T12:17:38;94143.22;;;32.78;41.04
3096;BME280;1558;42.700;23.360;2023-08-06T12:20:07;94134.28;;;32.15;40.89
3096;BME280;1558;42.700;23.360;2023-08-06T12:22:36;94137.06;;;30.70;42.30
3096;BME280;1558;42.700;23.360;2023-08-06T12:25:08;94139.97;;;29.80;44.04
3096;BME280;1558;42.700;23.360;2023-08-06T12:27:40;94139.63;;;29.14;45.30
3096;BME280;1558;42.700;23.360;2023-08-06T12:30:09;94053.97;;;28.54;47.00
3096;BME280;1558;42.700;23.360;2023-08-06T12:32:38;94135.66;;;28.77;47.50
3096;BME280;1558;42.700;23.360;2023-08-06T12:35:09;94125.34;;;28.77;48.03
3096;BME280;1558;42.700;23.360;2023-08-06T12:37:37;94139.03;;;28.66;47.18
3096;BME280;1558;42.700;23.360;2023-08-06T12:40:06;94131.47;;;28.43;48.51
3096;BME280;1558;42.700;23.360;2023-08-06T12:42:56;94132.25;;;28.58;48.62
3096;BME280;1558;42.700;23.360;2023-08-06T12:45:25;94131.91;;;28.65;47.46
3096;BME280;1558;42.700;23.360;2023-08-06T12:47:53;94117.47;;;28.61;48.53
3096;BME280;1558;42.700;23.360;2023-08-06T12:50:22;94127.84;;;28.90;48.39
3096;BME280;1558;42.700;23.360;2023-08-06T12:52:50;94126.19;;;28.98;47.84
3096;BME280;1558;42.700;23.360;2023-08-06T12:55:18;94122.06;;;28.94;47.57
3096;BME280;1558;42.700;23.360;2023-08-06T12:57:46;94130.88;;;28.77;48.32
3096;BME280;1558;42.700;23.360;2023-08-06T13:00:25;94127.47;;;28.59;48.02
3096;BME280;1558;42.700;23.360;2023-08-06T13:02:54;94115.31;;;28.18;48.68
3096;BME280;1558;42.700;23.360;2023-08-06T13:05:22;94136.56;;;28.21;48.64
3096;BME280;1558;42.700;23.360;2023-08-06T13:07:51;94131.97;;;28.18;49.48
3096;BME280;1558;42.700;23.360;2023-08-06T13:10:19;94105.66;;;28.13;48.81
3096;BME280;1558;42.700;23.360;2023-08-06T13:12:47;94131.53;;;28.34;49.52
3096;BME280;1558;42.700;23.360;2023-08-06T13:15:16;94126.38;;;28.42;48.78
3096;BME280;1558;42.700;23.360;2023-08-06T13:17:48;94139.78;;;28.43;48.46
3096;BME280;1558;42.700;23.360;2023-08-06T13:20:19;94127.59;;;28.26;48.30